createdAt,value
2022-10-07T00:01:12.223Z,7.20
2022-10-07T00:03:42.243Z,6.87
2022-10-07T00:06:15.175Z,7.23
2022-10-07T00:08:46.185Z,7.37
2022-10-07T00:11:16.890Z,8.13
2022-10-07T00:13:47.407Z,9.70
2022-10-07T00:16:19.094Z,10.23
2022-10-07T00:18:52.147Z,9.40
2022-10-07T00:21:21.183Z,9.13
2022-10-07T00:23:49.689Z,7.63
2022-10-07T00:26:21.241Z,5.87
2022-10-07T00:28:50.553Z,3.07
2022-10-07T00:31:22.863Z,5.13
2022-10-07T00:33:53.188Z,4.80
2022-10-07T00:36:24.240Z,8.87
2022-10-07T00:38:55.968Z,5.40
2022-10-07T00:41:28.365Z,7.03
2022-10-07T00:43:57.425Z,5.20
2022-10-07T00:46:34.614Z,5.90
2022-10-07T00:49:12.054Z,6.90
2022-10-07T00:51:42.373Z,5.63
2022-10-07T00:54:16.465Z,6.20
2022-10-07T00:56:47.487Z,7.40
2022-10-07T00:59:17.585Z,10.53
2022-10-07T01:01:46.234Z,7.50
2022-10-07T01:04:17.209Z,7.80
2022-10-07T01:06:45.990Z,7.73
2022-10-07T01:09:15.689Z,10.90
2022-10-07T01:11:56.949Z,10.63
2022-10-07T01:14:43.836Z,11.43
2022-10-07T01:17:24.014Z,9.27
2022-10-07T01:20:23.809Z,11.07
2022-10-07T01:23:11.606Z,10.63
2022-10-07T01:26:15.686Z,10.13
2022-10-07T01:28:50.636Z,10.17
2022-10-07T01:31:26.274Z,9.30
2022-10-07T01:33:56.003Z,9.00
2022-10-07T01:36:27.283Z,13.77
2022-10-07T01:39:02.991Z,13.70
2022-10-07T01:41:33.195Z,7.07
2022-10-07T01:44:03.888Z,8.73
2022-10-07T01:46:36.037Z,10.87
2022-10-07T01:49:05.209Z,10.53
2022-10-07T01:51:40.788Z,10.93
2022-10-07T01:54:27.856Z,7.03
2022-10-07T01:57:14.407Z,8.83
2022-10-07T02:00:07.456Z,7.33
2022-10-07T02:03:38.184Z,7.60
2022-10-07T02:06:20.808Z,5.13
2022-10-07T02:08:54.639Z,3.40
2022-10-07T02:11:27.730Z,5.23
2022-10-07T02:14:13.186Z,5.00
2022-10-07T02:16:47.876Z,4.30
2022-10-07T02:19:22.944Z,6.23
2022-10-07T02:21:57.138Z,7.63
2022-10-07T02:24:30.159Z,8.70
2022-10-07T02:27:04.344Z,6.13
2022-10-07T02:29:38.017Z,4.93
2022-10-07T02:32:12.201Z,4.83
2022-10-07T02:34:45.902Z,4.07
2022-10-07T02:37:21.575Z,6.00
2022-10-07T02:39:49.669Z,7.63
2022-10-07T02:42:28.040Z,6.63
2022-10-07T02:45:02.486Z,4.13
2022-10-07T02:47:42.292Z,6.13
2022-10-07T02:50:17.126Z,4.20
2022-10-07T02:52:47.743Z,4.27
2022-10-07T02:55:22.677Z,5.37
2022-10-07T02:57:58.514Z,4.93
2022-10-07T03:00:29.320Z,5.50
2022-10-07T03:03:02.762Z,5.00
2022-10-07T03:05:54.563Z,6.13
2022-10-07T03:08:24.985Z,4.40
2022-10-07T03:10:53.677Z,9.93
2022-10-07T03:13:22.296Z,7.73
2022-10-07T03:15:54.352Z,7.87
2022-10-07T03:18:28.509Z,9.50
2022-10-07T03:21:16.088Z,3.50
2022-10-07T03:23:44.430Z,4.37
2022-10-07T03:26:13.499Z,9.47
2022-10-07T03:28:41.633Z,5.53
2022-10-07T03:31:14.261Z,8.40
2022-10-07T03:33:48.690Z,5.90
2022-10-07T03:36:16.814Z,4.00
2022-10-07T03:38:47.266Z,6.30
2022-10-07T03:41:16.436Z,7.40
2022-10-07T03:43:45.132Z,10.67
2022-10-07T03:46:16.716Z,10.80
2022-10-07T03:48:45.535Z,5.47
2022-10-07T03:51:15.112Z,6.57
2022-10-07T03:53:43.255Z,7.00
2022-10-07T03:56:12.248Z,4.53
2022-10-07T03:58:42.987Z,5.20
2022-10-07T04:01:15.012Z,5.63
2022-10-07T04:03:52.472Z,5.17
2022-10-07T04:06:22.566Z,8.73
2022-10-07T04:08:53.446Z,10.00
2022-10-07T04:11:22.319Z,8.07
2022-10-07T04:13:53.662Z,8.50
2022-10-07T04:16:24.129Z,9.07
2022-10-07T04:18:56.748Z,12.30
2022-10-07T04:21:28.228Z,6.03
2022-10-07T04:23:56.305Z,5.87
2022-10-07T04:26:24.489Z,5.57
2022-10-07T04:28:52.771Z,4.60
2022-10-07T04:31:23.800Z,6.13
2022-10-07T04:33:58.450Z,7.03
2022-10-07T04:36:33.815Z,4.57
2022-10-07T04:39:48.976Z,7.57
2022-10-07T04:42:30.311Z,6.37
2022-10-07T04:44:58.609Z,6.33
2022-10-07T04:47:26.965Z,8.53
2022-10-07T04:49:55.212Z,6.50
2022-10-07T04:52:26.606Z,5.97
2022-10-07T04:54:55.112Z,5.97
2022-10-07T04:57:23.582Z,5.30
2022-10-07T04:59:52.842Z,5.00
2022-10-07T05:02:23.113Z,5.53
2022-10-07T05:04:51.272Z,5.63
2022-10-07T05:07:19.605Z,5.03
2022-10-07T05:09:49.219Z,6.77
2022-10-07T05:12:18.217Z,9.33
2022-10-07T05:14:47.671Z,6.07
2022-10-07T05:17:16.782Z,7.80
2022-10-07T05:19:45.354Z,7.83
2022-10-07T05:22:13.508Z,4.73
2022-10-07T05:24:42.673Z,9.17
2022-10-07T05:27:14.843Z,5.87
2022-10-07T05:29:43.916Z,6.80
2022-10-07T05:32:12.163Z,5.07
2022-10-07T05:34:40.350Z,6.57
2022-10-07T05:37:08.554Z,7.47
2022-10-07T05:39:36.687Z,5.90
2022-10-07T05:42:14.805Z,6.20
2022-10-07T05:44:50.780Z,8.83
2022-10-07T05:47:20.485Z,7.67
2022-10-07T05:49:49.684Z,11.33
2022-10-07T05:52:21.049Z,8.00
2022-10-07T05:54:50.787Z,9.43
2022-10-07T05:57:20.423Z,5.90
2022-10-07T05:59:49.514Z,3.37
2022-10-07T06:02:19.195Z,4.57
2022-10-07T06:04:50.175Z,7.60
2022-10-07T06:07:21.443Z,8.03
2022-10-07T06:10:11.466Z,4.60
2022-10-07T06:12:59.994Z,4.73
2022-10-07T06:15:28.219Z,7.57
2022-10-07T06:17:56.610Z,8.07
2022-10-07T06:20:25.023Z,4.73
2022-10-07T06:22:55.303Z,5.97
2022-10-07T06:25:23.440Z,6.23
2022-10-07T06:27:57.260Z,7.43
2022-10-07T06:30:29.292Z,5.97
2022-10-07T06:32:57.799Z,7.77
2022-10-07T06:35:26.236Z,5.87
2022-10-07T06:37:55.695Z,6.27
2022-10-07T06:40:23.879Z,6.73
2022-10-07T06:42:54.126Z,7.47
2022-10-07T06:45:32.419Z,5.10
2022-10-07T06:48:01.511Z,9.63
2022-10-07T06:50:30.513Z,6.03
2022-10-07T06:52:58.815Z,5.23
2022-10-07T06:55:28.139Z,6.13
2022-10-07T06:57:58.935Z,7.20
2022-10-07T07:00:27.917Z,6.50
2022-10-07T07:02:56.833Z,6.53
2022-10-07T07:05:25.132Z,8.50
2022-10-07T07:07:53.591Z,5.68
2022-10-07T07:10:21.806Z,8.73
2022-10-07T07:12:54.549Z,8.77
2022-10-07T07:15:24.491Z,9.20
2022-10-07T07:17:52.664Z,5.73
2022-10-07T07:20:21.487Z,10.90
2022-10-07T07:22:52.309Z,6.20
2022-10-07T07:25:20.542Z,6.75
2022-10-07T07:27:52.459Z,8.65
2022-10-07T07:30:25.108Z,11.73
2022-10-07T07:32:56.477Z,15.70
2022-10-07T07:35:25.938Z,19.60
2022-10-07T07:37:55.133Z,8.00
2022-10-07T07:40:23.363Z,14.70
2022-10-07T07:42:51.568Z,8.48
2022-10-07T07:45:19.834Z,8.10
2022-10-07T07:47:49.557Z,5.70
2022-10-07T07:50:20.810Z,10.00
2022-10-07T07:52:51.893Z,5.75
2022-10-07T07:55:24.528Z,5.28
2022-10-07T07:57:52.667Z,7.25
2022-10-07T08:00:20.909Z,9.18
2022-10-07T08:03:05.182Z,7.60
2022-10-07T08:05:36.385Z,8.82
2022-10-07T08:08:04.895Z,8.25
2022-10-07T08:10:33.139Z,6.57
2022-10-07T08:13:01.218Z,6.68
2022-10-07T08:15:29.416Z,6.13
2022-10-07T08:17:57.565Z,8.25
2022-10-07T08:20:27.078Z,9.07
2022-10-07T08:22:58.922Z,7.47
2022-10-07T08:25:29.503Z,10.48
2022-10-07T08:27:58.814Z,12.68
2022-10-07T08:30:27.489Z,13.48
2022-10-07T08:33:00.399Z,10.32
2022-10-07T08:35:30.757Z,7.18
2022-10-07T08:37:58.870Z,11.57
2022-10-07T08:40:27.187Z,11.38
2022-10-07T08:42:55.528Z,7.82
2022-10-07T08:45:31.834Z,8.00
2022-10-07T08:48:04.214Z,9.65
2022-10-07T08:50:50.420Z,8.25
2022-10-07T08:53:27.288Z,8.73
2022-10-07T08:56:01.732Z,9.20
2022-10-07T08:58:55.941Z,7.28
2022-10-07T09:01:45.368Z,11.13
2022-10-07T09:04:32.981Z,8.82
2022-10-07T09:07:10.544Z,9.52
2022-10-07T09:09:43.740Z,12.18
2022-10-07T09:12:22.789Z,13.40
2022-10-07T09:14:56.579Z,10.00
2022-10-07T09:17:35.052Z,10.50
2022-10-07T09:20:16.401Z,7.63
2022-10-07T09:22:54.839Z,11.55
2022-10-07T09:25:26.183Z,9.30
2022-10-07T09:27:54.840Z,7.63
2022-10-07T09:30:24.203Z,5.43
2022-10-07T09:32:55.697Z,9.77
2022-10-07T09:35:26.947Z,8.38
2022-10-07T09:38:03.288Z,11.00
2022-10-07T09:41:00.643Z,9.35
2022-10-07T09:43:30.745Z,19.45
2022-10-07T09:46:00.641Z,14.23
2022-10-07T09:48:32.625Z,11.95
2022-10-07T09:51:15.378Z,6.93
2022-10-07T09:53:59.990Z,11.02
2022-10-07T09:56:39.682Z,7.15
2022-10-07T09:59:20.496Z,9.82
2022-10-07T10:01:54.762Z,5.78
2022-10-07T10:04:33.433Z,9.40
2022-10-07T10:07:07.013Z,11.70
2022-10-07T10:09:36.682Z,12.90
2022-10-07T10:12:17.324Z,7.80
2022-10-07T10:14:49.917Z,8.50
2022-10-07T10:17:34.556Z,7.68
2022-10-07T10:20:39.444Z,6.90
2022-10-07T10:23:30.908Z,6.25
2022-10-07T10:26:31.123Z,4.35
2022-10-07T10:29:13.728Z,5.32
2022-10-07T10:32:04.457Z,6.88
2022-10-07T10:34:42.585Z,3.15
2022-10-07T10:37:18.404Z,4.00
2022-10-07T10:40:03.005Z,3.85
2022-10-07T10:42:45.380Z,2.90
2022-10-07T10:45:35.489Z,2.92
2022-10-07T10:48:30.026Z,4.15
2022-10-07T10:51:11.778Z,3.17
2022-10-07T10:53:57.120Z,9.13
2022-10-07T10:56:38.030Z,4.57
2022-10-07T10:59:34.334Z,3.50
2022-10-07T11:02:31.393Z,4.15
2022-10-07T11:05:06.281Z,3.58
2022-10-07T11:07:40.410Z,3.30
2022-10-07T11:10:21.093Z,4.72
2022-10-07T11:12:56.881Z,2.30
2022-10-07T11:15:31.388Z,3.20
2022-10-07T11:18:07.822Z,2.40
2022-10-07T11:20:44.843Z,4.75
2022-10-07T11:23:23.459Z,4.88
2022-10-07T11:25:58.257Z,5.88
2022-10-07T11:28:30.545Z,3.53
2022-10-07T11:31:10.001Z,4.35
2022-10-07T11:33:47.347Z,4.03
2022-10-07T11:36:21.640Z,4.15
2022-10-07T11:38:53.538Z,5.00
2022-10-07T11:41:30.886Z,6.35
2022-10-07T11:44:04.650Z,7.68
2022-10-07T11:46:40.645Z,3.63
2022-10-07T11:49:18.113Z,7.55
2022-10-07T11:52:00.476Z,3.67
2022-10-07T11:54:39.244Z,5.13
2022-10-07T11:57:07.910Z,2.85
2022-10-07T11:59:46.179Z,4.50
2022-10-07T12:02:49.104Z,3.13
2022-10-07T12:05:58.823Z,4.20
2022-10-07T12:08:36.500Z,6.00
2022-10-07T12:11:50.491Z,3.53
2022-10-07T12:14:36.349Z,5.82
2022-10-07T12:17:28.178Z,3.55
2022-10-07T12:20:47.700Z,6.30
2022-10-07T12:23:44.396Z,2.60
2022-10-07T12:26:48.689Z,6.53
2022-10-07T12:29:49.242Z,3.25
2022-10-07T12:33:01.416Z,3.30
2022-10-07T12:35:54.199Z,4.78
2022-10-07T12:38:27.086Z,4.72
2022-10-07T12:41:25.534Z,5.13
2022-10-07T12:44:08.155Z,3.28
2022-10-07T12:46:47.723Z,2.85
2022-10-07T12:49:26.143Z,5.43
2022-10-07T12:51:58.800Z,2.50
2022-10-07T12:54:33.640Z,4.13
2022-10-07T12:57:03.660Z,3.85
2022-10-07T12:59:57.700Z,3.60
2022-10-07T13:03:27.665Z,2.97
2022-10-07T13:06:42.846Z,7.18
2022-10-07T13:10:02.309Z,4.00
2022-10-07T13:12:48.418Z,4.68
2022-10-07T13:15:33.805Z,2.65
2022-10-07T13:18:16.472Z,2.58
2022-10-07T13:21:13.467Z,4.60
2022-10-07T13:23:41.669Z,4.45
2022-10-07T13:26:14.747Z,3.20
2022-10-07T13:28:50.116Z,4.35
2022-10-07T13:31:23.573Z,3.30
2022-10-07T13:33:53.259Z,9.07
2022-10-07T13:36:24.916Z,6.88
2022-10-07T13:38:54.965Z,2.90
2022-10-07T13:41:28.647Z,3.22
2022-10-07T13:44:02.872Z,4.35
2022-10-07T13:46:35.116Z,5.22
2022-10-07T13:49:04.858Z,7.90
2022-10-07T13:51:36.462Z,6.25
2022-10-07T13:54:07.802Z,5.85
2022-10-07T13:56:43.119Z,4.05
2022-10-07T13:59:18.024Z,4.32
2022-10-07T14:01:49.688Z,4.13
2022-10-07T14:04:26.054Z,3.72
2022-10-07T14:07:00.953Z,5.22
2022-10-07T14:09:45.008Z,5.93
2022-10-07T14:12:21.777Z,4.07
2022-10-07T14:14:55.583Z,6.15
2022-10-07T14:17:33.738Z,6.40
2022-10-07T14:20:05.666Z,4.57
2022-10-07T14:22:41.003Z,5.35
2022-10-07T14:25:21.409Z,4.47
2022-10-07T14:28:15.986Z,5.05
2022-10-07T14:31:04.180Z,4.03
2022-10-07T14:34:06.178Z,6.03
2022-10-07T14:36:36.007Z,5.10
2022-10-07T14:39:23.376Z,8.55
2022-10-07T14:41:51.828Z,4.88
2022-10-07T14:44:21.679Z,6.10
2022-10-07T14:46:49.897Z,4.80
2022-10-07T14:49:18.228Z,8.60
2022-10-07T14:51:47.860Z,6.65
2022-10-07T14:54:16.053Z,6.45
2022-10-07T14:56:44.250Z,9.48
2022-10-07T14:59:15.821Z,10.98
2022-10-07T15:01:45.357Z,12.35
2022-10-07T15:04:13.513Z,5.45
2022-10-07T15:06:41.864Z,13.27
2022-10-07T15:09:13.403Z,6.68
2022-10-07T15:11:42.292Z,8.35
2022-10-07T15:14:12.091Z,4.32
2022-10-07T15:16:41.557Z,6.00
2022-10-07T15:19:11.124Z,5.88
2022-10-07T15:21:39.243Z,5.57
2022-10-07T15:24:07.759Z,4.80
2022-10-07T15:26:35.871Z,8.95
2022-10-07T15:29:07.820Z,9.77
2022-10-07T15:31:37.932Z,10.45
2022-10-07T15:34:06.332Z,12.15
2022-10-07T15:36:35.933Z,13.93
2022-10-07T15:39:04.791Z,12.15
2022-10-07T15:41:36.488Z,10.45
2022-10-07T15:44:10.626Z,7.38
2022-10-07T15:46:38.839Z,9.93
2022-10-07T15:49:07.546Z,7.65
2022-10-07T15:51:37.247Z,7.00
2022-10-07T15:54:07.447Z,6.60
2022-10-07T15:56:35.708Z,7.47
2022-10-07T15:59:04.458Z,5.80
2022-10-07T16:01:33.020Z,5.70
2022-10-07T16:04:03.345Z,9.02
2022-10-07T16:06:35.084Z,14.02
2022-10-07T16:09:06.639Z,9.27
2022-10-07T16:11:35.789Z,7.97
2022-10-07T16:14:04.656Z,7.57
2022-10-07T16:16:33.735Z,6.68
2022-10-07T16:19:02.109Z,7.63
2022-10-07T16:21:33.037Z,5.38
2022-10-07T16:24:06.354Z,8.85
2022-10-07T16:26:37.445Z,7.82
2022-10-07T16:29:26.242Z,7.90
2022-10-07T16:31:58.948Z,15.38
2022-10-07T16:34:29.062Z,15.00
2022-10-07T16:36:58.743Z,12.00
2022-10-07T16:39:28.381Z,13.77
2022-10-07T16:41:56.829Z,12.07
2022-10-07T16:44:25.628Z,12.70
2022-10-07T16:46:56.740Z,10.60
2022-10-07T16:49:27.391Z,12.95
2022-10-07T16:51:56.382Z,13.23
2022-10-07T16:54:25.096Z,13.07
2022-10-07T16:56:54.541Z,15.27
2022-10-07T16:59:25.269Z,16.38
2022-10-07T17:01:56.484Z,18.70
2022-10-07T17:04:25.802Z,14.93
2022-10-07T17:06:54.247Z,9.77
2022-10-07T17:09:24.514Z,12.75
2022-10-07T17:11:53.994Z,8.63
2022-10-07T17:14:23.793Z,9.68
2022-10-07T17:16:56.608Z,11.40
2022-10-07T17:19:27.578Z,9.52
2022-10-07T17:21:58.467Z,11.55
2022-10-07T17:24:26.692Z,9.35
2022-10-07T17:26:56.789Z,11.02
2022-10-07T17:29:26.621Z,9.00
2022-10-07T17:31:55.111Z,7.25
2022-10-07T17:34:23.874Z,6.38
2022-10-07T17:36:52.257Z,11.45
2022-10-07T17:39:20.681Z,5.93
2022-10-07T17:41:49.024Z,8.40
2022-10-07T17:44:18.900Z,8.88
2022-10-07T17:46:48.830Z,13.35
2022-10-07T17:49:17.047Z,9.38
2022-10-07T17:51:45.373Z,10.70
2022-10-07T17:54:15.073Z,10.27
2022-10-07T17:56:47.657Z,7.45
2022-10-07T17:59:18.015Z,8.32
2022-10-07T18:01:46.281Z,7.25
2022-10-07T18:04:22.538Z,7.50
2022-10-07T18:06:53.059Z,8.38
2022-10-07T18:09:24.063Z,5.60
2022-10-07T18:12:09.829Z,7.43
2022-10-07T18:14:56.945Z,11.93
2022-10-07T18:17:25.278Z,7.78
2022-10-07T18:19:53.736Z,10.52
2022-10-07T18:22:22.355Z,6.75
2022-10-07T18:24:50.671Z,9.70
2022-10-07T18:27:21.631Z,6.72
2022-10-07T18:29:51.241Z,7.25
2022-10-07T18:32:19.386Z,10.43
2022-10-07T18:34:48.619Z,9.32
2022-10-07T18:37:16.838Z,9.95
2022-10-07T18:39:45.059Z,5.82
2022-10-07T18:42:13.501Z,6.97
2022-10-07T18:44:41.623Z,11.60
2022-10-07T18:47:11.145Z,19.80
2022-10-07T18:49:39.252Z,13.05
2022-10-07T18:52:07.373Z,15.90
2022-10-07T18:54:35.501Z,14.52
2022-10-07T18:57:03.672Z,16.23
2022-10-07T18:59:31.764Z,21.90
2022-10-07T19:01:59.943Z,15.80
2022-10-07T19:04:31.067Z,26.92
2022-10-07T19:06:59.216Z,27.35
2022-10-07T19:09:27.301Z,30.92
2022-10-07T19:11:55.706Z,26.55
2022-10-07T19:14:25.834Z,24.42
2022-10-07T19:16:54.442Z,30.45
2022-10-07T19:19:25.690Z,23.77
2022-10-07T19:21:56.218Z,26.40
2022-10-07T19:24:45.522Z,30.02
2022-10-07T19:27:14.202Z,29.30
2022-10-07T19:29:42.367Z,26.17
2022-10-07T19:32:10.586Z,27.35
2022-10-07T19:34:38.728Z,27.25
2022-10-07T19:37:08.252Z,25.77
2022-10-07T19:39:36.813Z,21.45
2022-10-07T19:42:05.370Z,25.17
2022-10-07T19:44:33.514Z,21.73
2022-10-07T19:47:02.804Z,22.73
2022-10-07T19:49:30.980Z,21.73
2022-10-07T19:51:59.113Z,21.95
2022-10-07T19:54:30.365Z,21.27
2022-10-07T19:56:58.441Z,20.58
2022-10-07T19:59:26.756Z,20.00
2022-10-07T20:01:58.851Z,18.17
2022-10-07T20:04:32.051Z,17.45
2022-10-07T20:07:00.117Z,16.17
2022-10-07T20:09:29.713Z,18.52
2022-10-07T20:11:57.782Z,15.15
2022-10-07T20:14:25.986Z,14.93
2022-10-07T20:16:56.517Z,17.02
2022-10-07T20:19:25.150Z,14.80
2022-10-07T20:21:53.431Z,19.20
2022-10-07T20:24:21.558Z,14.82
2022-10-07T20:26:51.001Z,19.02
2022-10-07T20:29:24.095Z,18.48
2022-10-07T20:31:53.851Z,14.23
2022-10-07T20:34:22.212Z,18.23
2022-10-07T20:36:50.513Z,13.13
2022-10-07T20:39:38.751Z,11.55
2022-10-07T20:42:25.398Z,13.10
2022-10-07T20:44:54.489Z,12.68
2022-10-07T20:47:27.978Z,12.32
2022-10-07T20:49:57.883Z,16.00
2022-10-07T20:52:28.570Z,14.48
2022-10-07T20:54:56.761Z,12.52
2022-10-07T20:57:33.127Z,15.02
2022-10-07T21:00:01.423Z,17.55
2022-10-07T21:02:29.650Z,13.65
2022-10-07T21:04:59.239Z,14.65
2022-10-07T21:07:27.704Z,16.02
2022-10-07T21:09:58.779Z,16.58
2022-10-07T21:12:28.225Z,16.52
2022-10-07T21:15:00.389Z,18.35
2022-10-07T21:17:28.470Z,15.05
2022-10-07T21:19:56.802Z,17.30
2022-10-07T21:22:25.427Z,14.45
2022-10-07T21:24:53.581Z,19.52
2022-10-07T21:27:21.709Z,17.45
2022-10-07T21:29:51.138Z,15.70
2022-10-07T21:32:19.404Z,18.20
2022-10-07T21:34:47.483Z,13.60
2022-10-07T21:37:15.602Z,13.82
2022-10-07T21:39:43.729Z,13.40
2022-10-07T21:42:11.907Z,13.32
2022-10-07T21:44:40.096Z,14.52
2022-10-07T21:47:09.576Z,14.10
2022-10-07T21:49:37.698Z,15.35
2022-10-07T21:52:05.910Z,15.40
2022-10-07T21:54:33.976Z,16.48
2022-10-07T21:57:04.450Z,14.45
2022-10-07T21:59:35.001Z,14.25
2022-10-07T22:02:03.194Z,15.45
2022-10-07T22:04:32.792Z,17.10
2022-10-07T22:07:18.806Z,16.52
2022-10-07T22:09:46.931Z,17.45
2022-10-07T22:12:15.467Z,19.45
2022-10-07T22:14:44.501Z,15.35
2022-10-07T22:17:14.204Z,20.30
2022-10-07T22:19:43.692Z,15.50
2022-10-07T22:22:12.855Z,15.32
2022-10-07T22:24:41.839Z,20.52
2022-10-07T22:27:10.255Z,16.50
2022-10-07T22:29:38.527Z,18.90
2022-10-07T22:32:06.722Z,17.65
2022-10-07T22:34:52.317Z,15.13
2022-10-07T22:37:21.882Z,15.65
2022-10-07T22:39:50.079Z,15.77
2022-10-07T22:42:18.334Z,14.90
2022-10-07T22:44:46.438Z,18.40
2022-10-07T22:47:16.272Z,14.80
2022-10-07T22:49:44.932Z,16.10
2022-10-07T22:52:13.037Z,17.67
2022-10-07T22:54:42.576Z,19.10
2022-10-07T22:57:10.675Z,16.55
2022-10-07T22:59:38.835Z,19.90
2022-10-07T23:02:09.194Z,18.60
2022-10-07T23:04:37.349Z,16.75
2022-10-07T23:07:05.453Z,16.10
2022-10-07T23:09:33.527Z,18.30
2022-10-07T23:12:04.591Z,18.02
2022-10-07T23:14:32.877Z,19.30
2022-10-07T23:17:01.027Z,14.97
2022-10-07T23:19:29.132Z,17.90
2022-10-07T23:21:57.232Z,15.50
2022-10-07T23:24:28.173Z,16.33
2022-10-07T23:26:56.444Z,19.05
2022-10-07T23:29:26.510Z,21.60
2022-10-07T23:31:54.634Z,18.67
2022-10-07T23:34:23.279Z,16.83
2022-10-07T23:36:55.206Z,20.85
2022-10-07T23:39:23.608Z,18.38
2022-10-07T23:41:51.743Z,17.27
2022-10-07T23:44:19.951Z,22.73
2022-10-07T23:46:51.550Z,17.30
2022-10-07T23:49:22.492Z,20.13
2022-10-07T23:51:50.725Z,16.48
2022-10-07T23:54:18.835Z,16.00
2022-10-07T23:56:46.997Z,18.00
2022-10-07T23:59:15.131Z,19.33
